Nearby METAR Reports

 

KSEE - San Diego/Santee, California, USA
Distance from station: E 4mi, 6km
Updated: Tue, 28-Mar-2017 3:47pm PDT
Clear
Clear
 Wind from WNW
Wind: WNW 13 mph , 20 km/h
Temperature: 73°F , 23°C
Dew Point: 45°F , 7°C
Humidity: 36%
Barometer: 29.95 inHg , 1014.2 hPa
Clouds: Clear
Visibility: 10 miles , 16 km
2017/03/28 22:47 KSEE 282247Z 29011KT 10SM SKC 23/07 A2995
KMYF - San Diego/Mntgmy, California, USA
Distance from station: W 6mi, 10km
Updated: Tue, 28-Mar-2017 3:53pm PDT
Clear
Clear
 Wind from W
Wind: W 10 mph , 17 km/h
Temperature: 70°F , 21°C
Dew Point: 39°F , 4°C
Humidity: 33%
Barometer: 29.96 inHg , 1014.6 hPa
Clouds: Clear
Visibility: 10 miles , 16 km
2017/03/28 22:53 KMYF 282253Z 27009KT 10SM CLR 21/04 A2996 RMK AO2 SLP143 T02110044
 
KNKX - Miramar Nas/San, California, USA
Distance from station: WNW 7mi, 11km
Updated: Tue, 28-Mar-2017 3:55pm PDT
Few Clouds
Few Clouds
 Wind from WNW
Wind: WNW 9 mph , 15 km/h
Temperature: 73°F , 23°C
Dew Point: 43°F , 6°C
Humidity: 33%
Barometer: 29.96 inHg , 1014.6 hPa
Clouds: Few Clouds
Visibility: 10 miles , 16 km
Cloud details: Few Clouds 20000 ft
2017/03/28 22:55 KNKX 282255Z 30008KT 10SM FEW200 23/06 A2996 RMK AO2 SLP139 T02280056
KSAN - San Diego, California, USA
Distance from station: WSW 11mi, 17km
Updated: Tue, 28-Mar-2017 3:51pm PDT
Partly cloudy
Partly cloudy
 Wind from WNW
Wind: WNW 13 mph , 20 km/h
Temperature: 70°F , 21°C
Dew Point: 46°F , 8°C
Humidity: 43%
Barometer: 29.98 inHg , 1015.2 hPa
Clouds: Partly cloudy
Visibility: 10 miles , 16 km
Cloud details: Partly cloudy 25000 ft
2017/03/28 22:51 KSAN 282251Z 30011KT 10SM SCT250 21/08 A2998 RMK AO2 SLP151 T02060078
 
KNZY - North Island Nas, California, USA
Distance from station: SW 13mi, 22km
Updated: Tue, 28-Mar-2017 3:52pm PDT
Few Clouds
Few Clouds
 Wind from WNW
Wind: WNW 8 mph , 13 km/h
Temperature: 68°F , 20°C
Dew Point: 52°F , 11°C
Humidity: 56%
Barometer: 29.96 inHg , 1014.6 hPa
Clouds: Few Clouds
Visibility: 10 miles , 16 km
Cloud details: Few Clouds 25000 ft
2017/03/28 22:52 KNZY 282252Z 29007KT 10SM FEW250 20/11 A2996 RMK AO2 SLP144 T02000106 $
KRNM - Ramona, California, USA
Distance from station: NNE 16mi, 26km
Updated: Tue, 28-Mar-2017 3:53pm PDT
Clear
Clear
 Wind from W
Wind: W 9 mph , 15 km/h
Temperature: 70°F , 21°C
Dew Point: 46°F , 8°C
Humidity: 43%
Barometer: 29.95 inHg , 1014.2 hPa
Clouds: Clear
Visibility: 10 miles , 16 km
2017/03/28 22:53 KRNM 282253Z 27008KT 10SM CLR 21/08 A2995 RMK AO2 SLP138 T02110078
 
KSDM - San Diego/Brown, California, USA
Distance from station: S 16mi, 26km
Updated: Tue, 28-Mar-2017 3:53pm PDT
Clear
Clear
 Wind from WNW
Wind: WNW 8 mph , 13 km/h
Temperature: 68°F , 20°C
Dew Point: 45°F , 7°C
Humidity: 43%
Barometer: 29.96 inHg , 1014.6 hPa
Clouds: Clear
Visibility: 10 miles , 16 km
2017/03/28 22:53 KSDM 282253Z 30007KT 10SM CLR 20/07 A2996 RMK AO2 SLP143 T02000067
KNRS - Imperial Beach, California, USA
Distance from station: SSW 18mi, 29km
Updated: Tue, 28-Mar-2017 3:56pm PDT
Partly cloudy
Partly cloudy
 Wind from WNW
Wind: WNW 12 mph , 19 km/h
Temperature: 66°F , 19°C
Dew Point: 54°F , 12°C
Humidity: 64%
Barometer: 29.97 inHg , 1014.9 hPa
Clouds: Partly cloudy
Visibility: 10 miles , 16 km
Cloud details: Partly cloudy 25000 ft
2017/03/28 22:56 KNRS 282256Z 29010KT 10SM SCT250 19/12 A2997 RMK AO2 SLP147 T01940117 $
 
MMTJ - Tijuana Intl Arp, Mexico
Distance from station: S 20mi, 32km
Updated: Tue, 28-Mar-2017 3:41pm PDT
Clear
Clear
 Wind from W
Wind: W 9 mph , 15 km/h
Temperature: 68°F , 20°C
Dew Point: 41°F , 5°C
Humidity: 38%
Barometer: 29.99 inHg , 1015.6 hPa
Clouds: Clear
Visibility: 8 miles , 13 km
2017/03/28 22:41 MMTJ 282241Z 28008KT 8SM SKC 20/05 A2999 RMK ISOL CI HZY
KCRQ - Carlsbad, California, USA
Distance from station: NW 26mi, 43km
Updated: Tue, 28-Mar-2017 3:53pm PDT
Clear
Clear
 Wind from W
Wind: W 6 mph , 9 km/h
Temperature: 64°F , 18°C
Dew Point: 52°F , 11°C
Humidity: 64%
Barometer: 29.95 inHg , 1014.2 hPa
Clouds: Clear
Visibility: 10 miles , 16 km
2017/03/28 22:53 KCRQ 282253Z 28005KT 10SM CLR 18/11 A2995 RMK AO2 SLP141 T01830106
 
KOKB - Oceanside, California, USA
Distance from station: NW 33mi, 54km
Updated: Tue, 28-Mar-2017 3:52pm PDT
Clear
Clear
 Wind from WSW
Wind: WSW 12 mph , 19 km/h
Temperature: 68°F , 20°C
Dew Point: 55°F , 13°C
Humidity: 64%
Barometer: 29.95 inHg , 1014.2 hPa
Clouds: Clear
Visibility: 9 miles , 14 km
2017/03/28 22:52 KOKB 282252Z AUTO 24010KT 9SM CLR 20/13 A2995 RMK AO2 SLP140 T02000128
KCZZ - Campo, California, USA
Distance from station: ESE 35mi, 56km
Updated: Tue, 28-Mar-2017 3:52pm PDT

 Wind from SW
Wind: SW 12 mph , 19 km/h
Temperature: 70°F , 21°C
Dew Point: 36°F , 2°C
Humidity: 29%
Barometer: 29.93 inHg , 1013.5 hPa
2017/03/28 22:52 KCZZ 282252Z AUTO 23010KT 21/02 A2993 RMK AO1 SLP118 T02060017
 
KNFG - Camp Pendleton, California, USA
Distance from station: NNW 37mi, 59km
Updated: Tue, 28-Mar-2017 3:55pm PDT
Few Clouds
Few Clouds
 Wind from WSW
Wind: WSW 9 mph , 15 km/h
Temperature: 72°F , 22°C
Dew Point: 48°F , 9°C
Humidity: 44%
Barometer: 29.94 inHg , 1013.9 hPa
Clouds: Few Clouds
Visibility: 7 miles , 11 km
Cloud details: Few Clouds 20000 ft
2017/03/28 22:55 KNFG 282255Z 24008KT 7SM FEW200 22/09 A2994 RMK AO2 SLP137 T02170094
KRIV - Riverside/March, California, USA
Distance from station: N 74mi, 119km
Updated: Tue, 28-Mar-2017 3:58pm PDT
Clear
Clear
 Wind from NW
Wind: NW 16 mph , 26 km/h
Temperature: 75°F , 24°C
Dew Point: 21°F , -6°C
Humidity: 13%
Barometer: 29.95 inHg , 1014.2 hPa
Clouds: Clear
Visibility: 10 miles , 16 km
2017/03/28 22:58 KRIV 282258Z AUTO 32014KT 10SM CLR 24/M06 A2995 RMK AO2 SLP134 T02441064
 
KTRM - Thermal/Palm Spg, California, USA
Distance from station: NE 75mi, 121km
Updated: Tue, 28-Mar-2017 3:52pm PDT
Clear
Clear
 Wind from NW
Wind: NW 13 mph , 20 km/h
Temperature: 84°F , 29°C
Dew Point: 10°F , -12°C
Humidity: 6%
Barometer: 29.87 inHg , 1011.5 hPa
Clouds: Clear
Visibility: 10 miles , 16 km
2017/03/28 22:52 KTRM 282252Z AUTO 31011KT 10SM CLR 29/M12 A2987 RMK AO2 SLP116 T02891122
KPSP - Palm Springs, California, USA
Distance from station: NNE 76mi, 122km
Updated: Tue, 28-Mar-2017 3:53pm PDT
Clear
Clear
 Wind from E
Wind: E 10 mph , 17 km/h, Gust: 21 mph , 33 km/h
Temperature: 84°F , 29°C
Dew Point: 12°F , -11°C
Humidity: 6%
Barometer: 29.92 inHg , 1013.2 hPa
Clouds: Clear
Visibility: 10 miles , 16 km
2017/03/28 22:53 KPSP 282253Z 09009G18KT 10SM CLR 29/M11 A2992 RMK AO2 SLP128 T02941106
 
KSNA - Costa Mesa, California, USA
Distance from station: NW 76mi, 123km
Updated: Tue, 28-Mar-2017 3:53pm PDT
Clear
Clear
 Wind from W
Wind: W 10 mph , 17 km/h
Temperature: 73°F , 23°C
Dew Point: 34°F , 1°C
Humidity: 23%
Barometer: 29.95 inHg , 1014.2 hPa
Clouds: Clear
Visibility: 10 miles , 16 km
2017/03/28 22:53 KSNA 282253Z 26009KT 10SM CLR 23/01 A2995 RMK AO2 SLP140 T02330011
KNJK - El Centro Naf, California, USA
Distance from station: E 79mi, 127km
Updated: Tue, 28-Mar-2017 3:56pm PDT
Clear
Clear
 Wind from N
Wind: N 8 mph , 13 km/h, Gust: 21 mph , 33 km/h
Temperature: 81°F , 27°C
Dew Point: 10°F , -12°C
Humidity: 7%
Barometer: 29.91 inHg , 1012.9 hPa
Clouds: Clear
Visibility: 10 miles , 16 km
2017/03/28 22:56 KNJK 282256Z 35007G18KT 10SM CLR 27/M12 A2991 RMK AO2 SLP142 T02721122 $
 
KAJO - Corona Muni, California, USA
Distance from station: NNW 82mi, 132km
Updated: Tue, 28-Mar-2017 3:56pm PDT
Clear
Clear
 Wind from W
Wind: W 7 mph , 11 km/h, Gust: 16 mph , 26 km/h
Temperature: 79°F , 26°C
Dew Point: 30°F , -1°C
Humidity: 17%
Barometer: 29.94 inHg , 1013.9 hPa
Clouds: Clear
Visibility: 10 miles , 16 km
2017/03/28 22:56 KAJO 282256Z AUTO 28006G14KT 10SM CLR 26/M01 A2994 RMK AO2 SLP151 T02561011